Time;durP1;ratioP1;P1;durP2;ratioP2;P2;SDS_P1;SDS_P2;PMS_P1;PMS_P2;Temp;Humidity;BMP_temperature;BMP_pressure;BME280_temperature;BME280_humidity;BME280_pressure;Samples;Min_cycle;Max_cycle;Signal;HPM_P1;HPM_P2
2022/05/23 00:02:05;;;;;;;0.10;0.10;;;;;;;;;;6222862;22;20018;-89
2022/05/23 00:04:31;;;;;;;0.10;0.10;;;;;;;;;;6197454;22;20012;-90
2022/05/23 00:06:57;;;;;;;0.17;0.17;;;;;;;;;;6197774;22;20020;-91
2022/05/23 00:09:23;;;;;;;0.10;0.10;;;;;;;;;;6198201;22;20436;-91
2022/05/23 00:11:49;;;;;;;0.10;0.10;;;;;;;;;;6199539;22;20040;-90
2022/05/23 00:14:15;;;;;;;0.10;0.10;;;;;;;;;;6224503;22;20023;-91
2022/05/23 00:16:42;;;;;;;0.10;0.10;;;;;;;;;;6199456;22;20318;-90
2022/05/23 00:19:11;;;;;;;0.10;0.10;;;;;;;;;;6199691;22;20012;-90
2022/05/23 00:21:41;;;;;;;0.10;0.10;;;;;;;;;;6249507;22;20039;-89
2022/05/23 00:24:07;;;;;;;0.10;0.10;;;;;;;;;;6224445;22;20091;-89
2022/05/23 00:26:33;;;;;;;0.10;0.10;;;;;;;;;;6224805;22;20012;-89
2022/05/23 00:28:59;;;;;;;0.10;0.10;;;;;;;;;;6224680;22;20050;-91
2022/05/23 00:31:25;;;;;;;0.10;0.10;;;;;;;;;;6224471;22;20016;-91
2022/05/23 00:36:36;;;;;;;0.13;0.13;;;;;;;;;;6228754;22;20020;-91
2022/05/23 00:39:03;;;;;;;0.10;0.10;;;;;;;;;;6199896;22;20008;-93
2022/05/23 00:44:13;;;;;;;0.10;0.10;;;;;;;;;;6249383;22;20019;-90
2022/05/23 00:46:49;;;;;;;0.10;0.10;;;;;;;;;;6224329;22;20015;-90
2022/05/23 00:49:15;;;;;;;0.10;0.10;;;;;;;;;;6224268;22;20015;-90
2022/05/23 00:51:41;;;;;;;0.10;0.10;;;;;;;;;;6199333;22;20069;-90
2022/05/23 00:54:07;;;;;;;0.10;0.10;;;;;;;;;;6224176;22;20015;-90
2022/05/23 00:56:37;;;;;;;0.10;0.10;;;;;;;;;;6199379;22;20012;-93
2022/05/23 00:59:03;;;;;;;0.20;0.20;;;;;;;;;;6199215;22;20064;-90
2022/05/23 01:01:30;;;;;;;0.10;0.10;;;;;;;;;;6199062;22;20054;-90
2022/05/23 01:03:56;;;;;;;0.10;0.10;;;;;;;;;;6199334;22;20394;-91
2022/05/23 01:06:22;;;;;;;0.10;0.10;;;;;;;;;;6199624;22;20039;-90
2022/05/23 01:08:48;;;;;;;0.10;0.10;;;;;;;;;;6199285;22;20015;-90
2022/05/23 01:11:14;;;;;;;0.10;0.10;;;;;;;;;;6199480;22;20035;-89
2022/05/23 01:13:40;;;;;;;0.10;0.10;;;;;;;;;;6198740;22;20015;-89
2022/05/23 01:16:06;;;;;;;0.10;0.10;;;;;;;;;;6198864;22;20023;-90
2022/05/23 01:18:32;;;;;;;0.10;0.10;;;;;;;;;;6224034;22;20494;-89
2022/05/23 01:21:00;;;;;;;0.10;0.10;;;;;;;;;;6198922;22;20043;-89
2022/05/23 01:23:38;;;;;;;0.10;0.10;;;;;;;;;;6224026;22;20007;-89
2022/05/23 01:26:04;;;;;;;0.10;0.10;;;;;;;;;;6223868;22;20518;-90
2022/05/23 01:28:38;;;;;;;0.10;0.10;;;;;;;;;;6223681;22;20011;-90
2022/05/23 01:31:04;;;;;;;0.10;0.10;;;;;;;;;;6199035;22;20019;-91
2022/05/23 01:33:30;;;;;;;0.10;0.10;;;;;;;;;;6275201;22;20019;-91
2022/05/23 01:35:59;;;;;;;0.10;0.10;;;;;;;;;;6224324;22;20102;-91
2022/05/23 01:38:25;;;;;;;0.10;0.10;;;;;;;;;;6199333;22;20502;-91
2022/05/23 01:40:51;;;;;;;0.10;0.10;;;;;;;;;;6198842;22;20321;-91
2022/05/23 01:43:17;;;;;;;0.10;0.10;;;;;;;;;;6224163;22;20067;-91
2022/05/23 01:45:43;;;;;;;0.15;0.15;;;;;;;;;;6198801;22;20054;-91
2022/05/23 01:48:09;;;;;;;0.10;0.10;;;;;;;;;;6198891;22;20023;-92
2022/05/23 01:50:35;;;;;;;0.10;0.10;;;;;;;;;;6198885;22;20048;-91
2022/05/23 01:53:01;;;;;;;0.10;0.10;;;;;;;;;;6198664;22;20016;-91
2022/05/23 01:55:27;;;;;;;0.10;0.10;;;;;;;;;;6199353;22;20022;-91
2022/05/23 01:57:53;;;;;;;0.10;0.10;;;;;;;;;;6224293;22;20011;-91
2022/05/23 02:03:03;;;;;;;0.10;0.10;;;;;;;;;;6227987;22;20012;-91
2022/05/23 02:05:30;;;;;;;0.10;0.10;;;;;;;;;;6199210;22;20023;-91
2022/05/23 02:07:56;;;;;;;0.10;0.10;;;;;;;;;;6223714;22;20022;-92
2022/05/23 02:10:22;;;;;;;0.10;0.10;;;;;;;;;;6198936;22;20023;-92
2022/05/23 02:12:48;;;;;;;0.10;0.10;;;;;;;;;;6198313;22;20023;-92
2022/05/23 02:15:17;;;;;;;0.20;0.20;;;;;;;;;;6198949;22;20011;-92
2022/05/23 02:17:43;;;;;;;0.10;0.10;;;;;;;;;;6199570;22;20009;-90
2022/05/23 02:20:09;;;;;;;0.10;0.10;;;;;;;;;;6223374;22;20335;-89
2022/05/23 02:22:36;;;;;;;0.10;0.10;;;;;;;;;;6197682;22;20008;-91
2022/05/23 02:25:02;;;;;;;0.10;0.10;;;;;;;;;;6223343;22;20018;-89
2022/05/23 02:27:30;;;;;;;0.10;0.10;;;;;;;;;;6198486;22;20012;-91
2022/05/23 02:29:56;;;;;;;0.10;0.10;;;;;;;;;;6198649;22;20015;-92
2022/05/23 02:32:22;;;;;;;0.17;0.17;;;;;;;;;;6222297;22;20024;-92
2022/05/23 02:34:48;;;;;;;0.10;0.10;;;;;;;;;;6198231;22;20023;-90
2022/05/23 02:37:14;;;;;;;0.10;0.10;;;;;;;;;;6223087;22;20343;-90
2022/05/23 02:39:40;;;;;;;0.10;0.10;;;;;;;;;;6248305;22;20069;-89
2022/05/23 02:42:07;;;;;;;0.10;0.10;;;;;;;;;;6198316;22;20012;-91
2022/05/23 02:44:33;;;;;;;0.20;0.20;;;;;;;;;;6198227;22;20011;-90
2022/05/23 02:46:59;;;;;;;0.10;0.10;;;;;;;;;;6198288;22;20016;-91
2022/05/23 02:49:28;;;;;;;0.10;0.10;;;;;;;;;;6224636;22;20440;-93
2022/05/23 02:51:54;;;;;;;0.10;0.10;;;;;;;;;;6198964;22;20023;-90
2022/05/23 02:54:20;;;;;;;0.10;0.10;;;;;;;;;;6223571;22;20022;-90
2022/05/23 02:56:46;;;;;;;0.10;0.10;;;;;;;;;;6197848;22;20058;-90
2022/05/23 02:59:12;;;;;;;0.10;0.10;;;;;;;;;;6223033;22;20012;-90
2022/05/23 03:03:01;;;;;;;0.10;0.10;;;;;;;;;;6198394;22;20380;-90
2022/05/23 03:04:24;;;;;;;0.10;0.10;;;;;;;;;;6226916;22;20011;-90
2022/05/23 03:06:50;;;;;;;0.10;0.10;;;;;;;;;;6197996;22;20018;-90
2022/05/23 03:09:16;;;;;;;0.10;0.10;;;;;;;;;;6223456;22;20020;-92
2022/05/23 03:11:42;;;;;;;0.10;0.10;;;;;;;;;;6198670;22;20050;-92
2022/05/23 03:14:09;;;;;;;0.10;0.10;;;;;;;;;;6223222;22;20011;-90
2022/05/23 03:16:35;;;;;;;0.10;0.10;;;;;;;;;;6197959;22;20016;-90
2022/05/23 03:19:01;;;;;;;0.10;0.10;;;;;;;;;;6223238;22;20336;-90
2022/05/23 03:26:59;;;;;;;0.10;0.10;;;;;;;;;;6227058;22;20023;-92
2022/05/23 03:29:25;;;;;;;0.10;0.10;;;;;;;;;;6198575;22;20399;-91
2022/05/23 03:31:51;;;;;;;0.10;0.10;;;;;;;;;;6197853;22;20020;-90
2022/05/23 03:34:17;;;;;;;0.10;0.10;;;;;;;;;;6222986;22;20020;-91
2022/05/23 03:36:43;;;;;;;0.10;0.10;;;;;;;;;;6198215;22;20069;-91
2022/05/23 03:39:09;;;;;;;0.20;0.20;;;;;;;;;;6198398;22;20340;-90
2022/05/23 03:41:35;;;;;;;0.10;0.10;;;;;;;;;;6198054;22;20015;-89
2022/05/23 03:44:01;;;;;;;0.20;0.20;;;;;;;;;;6198022;22;20087;-88
2022/05/23 03:46:28;;;;;;;0.10;0.10;;;;;;;;;;6224953;22;20015;-88
2022/05/23 03:48:54;;;;;;;0.10;0.10;;;;;;;;;;6225375;22;20015;-89
2022/05/23 03:51:20;;;;;;;0.10;0.10;;;;;;;;;;6199777;22;20016;-88
2022/05/23 03:53:46;;;;;;;0.10;0.10;;;;;;;;;;6224399;22;20015;-89
2022/05/23 03:56:12;;;;;;;0.10;0.10;;;;;;;;;;6199648;22;20008;-89
2022/05/23 03:58:38;;;;;;;0.28;0.28;;;;;;;;;;6199845;22;20333;-89
2022/05/23 04:01:07;;;;;;;0.10;0.10;;;;;;;;;;6225009;22;20016;-89
2022/05/23 04:03:34;;;;;;;0.10;0.10;;;;;;;;;;6224902;22;20011;-90
2022/05/23 04:06:00;;;;;;;0.10;0.10;;;;;;;;;;6199983;22;20015;-90
2022/05/23 04:08:26;;;;;;;0.10;0.10;;;;;;;;;;6199739;22;20073;-90
2022/05/23 04:10:52;;;;;;;0.10;0.10;;;;;;;;;;6199803;22;20142;-91
2022/05/23 04:13:18;;;;;;;0.20;0.20;;;;;;;;;;6199504;22;20340;-90
2022/05/23 04:15:44;;;;;;;0.10;0.10;;;;;;;;;;6199849;22;20011;-91
2022/05/23 04:18:10;;;;;;;0.10;0.10;;;;;;;;;;6199909;22;20012;-91
2022/05/23 04:20:36;;;;;;;0.10;0.10;;;;;;;;;;6224994;22;20023;-91
2022/05/23 04:23:02;;;;;;;0.10;0.10;;;;;;;;;;6199796;22;20487;-91
2022/05/23 04:25:28;;;;;;;0.10;0.10;;;;;;;;;;6225192;22;20007;-91
2022/05/23 04:27:54;;;;;;;0.10;0.10;;;;;;;;;;6199799;22;20019;-91
2022/05/23 04:30:21;;;;;;;0.10;0.10;;;;;;;;;;6199790;22;20008;-91
2022/05/23 04:35:32;;;;;;;0.10;0.10;;;;;;;;;;6223414;23;20091;-91
2022/05/23 04:37:58;;;;;;;0.10;0.10;;;;;;;;;;6194405;23;20162;-91
2022/05/23 04:40:25;;;;;;;0.17;0.17;;;;;;;;;;6194582;23;20465;-92
2022/05/23 04:42:51;;;;;;;0.10;0.10;;;;;;;;;;6195208;23;20012;-92
2022/05/23 04:45:26;;;;;;;0.10;0.10;;;;;;;;;;6195028;23;20008;-92
2022/05/23 04:50:37;;;;;;;0.10;0.10;;;;;;;;;;6224006;23;20020;-92
2022/05/23 04:53:03;;;;;;;0.10;0.10;;;;;;;;;;6194334;23;20019;-90
2022/05/23 04:55:30;;;;;;;0.10;0.10;;;;;;;;;;6193865;23;20027;-90
2022/05/23 04:57:59;;;;;;;0.10;0.10;;;;;;;;;;6194604;23;20009;-90
2022/05/23 05:00:25;;;;;;;0.10;0.10;;;;;;;;;;6195006;23;20012;-90
2022/05/23 05:02:51;;;;;;;0.10;0.10;;;;;;;;;;6194025;23;20008;-90
2022/05/23 05:05:18;;;;;;;0.10;0.10;;;;;;;;;;6244204;23;20377;-90
2022/05/23 05:07:44;;;;;;;0.10;0.10;;;;;;;;;;6193166;23;20008;-91
2022/05/23 05:10:10;;;;;;;0.10;0.10;;;;;;;;;;6194437;23;20329;-90
2022/05/23 05:12:36;;;;;;;0.13;0.13;;;;;;;;;;6194608;23;20065;-89
2022/05/23 05:15:02;;;;;;;0.32;0.20;;;;;;;;;;6243970;23;20087;-92
2022/05/23 05:17:28;;;;;;;0.10;0.10;;;;;;;;;;6194168;23;20294;-88
2022/05/23 05:19:54;;;;;;;0.10;0.10;;;;;;;;;;6219313;23;20022;-89
2022/05/23 05:22:20;;;;;;;0.17;0.17;;;;;;;;;;6193785;22;20012;-90
2022/05/23 05:24:46;;;;;;;0.10;0.10;;;;;;;;;;6193587;23;20441;-89
2022/05/23 05:27:12;;;;;;;0.10;0.10;;;;;;;;;;6193777;23;20109;-88
2022/05/23 05:29:38;;;;;;;0.10;0.10;;;;;;;;;;6194528;23;20051;-90
2022/05/23 05:32:09;;;;;;;0.10;0.10;;;;;;;;;;6218425;23;20389;-90
2022/05/23 05:34:46;;;;;;;0.10;0.10;;;;;;;;;;6218772;23;20047;-90
2022/05/23 05:37:13;;;;;;;0.10;0.10;;;;;;;;;;6218683;23;20039;-90
2022/05/23 05:39:39;;;;;;;0.10;0.10;;;;;;;;;;6194035;23;20008;-90
2022/05/23 05:42:11;;;;;;;0.10;0.10;;;;;;;;;;6192852;23;20087;-90
2022/05/23 05:44:38;;;;;;;0.10;0.10;;;;;;;;;;6193572;23;20012;-91
2022/05/23 05:47:05;;;;;;;0.10;0.10;;;;;;;;;;6193646;23;20023;-90
2022/05/23 05:49:32;;;;;;;0.10;0.10;;;;;;;;;;6193490;23;20016;-90
2022/05/23 05:52:01;;;;;;;0.10;0.10;;;;;;;;;;6193873;23;20389;-91
2022/05/23 05:54:29;;;;;;;0.10;0.10;;;;;;;;;;6194020;23;20012;-91
2022/05/23 05:56:58;;;;;;;0.10;0.10;;;;;;;;;;6220035;23;20019;-91
2022/05/23 05:59:24;;;;;;;0.10;0.10;;;;;;;;;;6193421;23;20012;-90
2022/05/23 06:01:50;;;;;;;0.22;0.22;;;;;;;;;;6193345;23;20008;-90
2022/05/23 06:04:16;;;;;;;0.10;0.10;;;;;;;;;;6218159;23;20017;-90
2022/05/23 06:12:11;;;;;;;0.10;0.10;;;;;;;;;;6222322;22;20440;-91
2022/05/23 06:14:37;;;;;;;0.10;0.10;;;;;;;;;;6218487;23;20023;-92
2022/05/23 06:17:07;;;;;;;0.10;0.10;;;;;;;;;;6218319;23;20012;-92
2022/05/23 06:19:46;;;;;;;0.10;0.10;;;;;;;;;;6218819;23;20012;-92
2022/05/23 06:22:12;;;;;;;0.10;0.10;;;;;;;;;;6194255;22;20012;-91
2022/05/23 06:24:38;;;;;;;0.10;0.10;;;;;;;;;;6193761;23;20163;-94
2022/05/23 06:27:06;;;;;;;0.10;0.10;;;;;;;;;;6218560;23;20047;-91
2022/05/23 06:29:32;;;;;;;0.20;0.20;;;;;;;;;;6193447;23;20018;-90
2022/05/23 06:31:58;;;;;;;0.10;0.10;;;;;;;;;;6219779;23;20016;-90
2022/05/23 06:34:24;;;;;;;0.10;0.10;;;;;;;;;;6220349;23;20012;-89
2022/05/23 06:36:50;;;;;;;0.10;0.10;;;;;;;;;;6206378;23;20020;-91
2022/05/23 06:39:17;;;;;;;0.10;0.10;;;;;;;;;;6209204;23;20016;-90
2022/05/23 06:41:43;;;;;;;0.10;0.10;;;;;;;;;;6193636;23;20008;-91
2022/05/23 06:44:09;;;;;;;0.30;0.20;;;;;;;;;;6193381;23;20010;-91
2022/05/23 06:46:35;;;;;;;0.10;0.10;;;;;;;;;;6193803;23;20122;-90
2022/05/23 06:49:01;;;;;;;0.10;0.10;;;;;;;;;;6218095;23;20055;-90
2022/05/23 06:51:28;;;;;;;0.20;0.20;;;;;;;;;;6218661;23;20098;-91
2022/05/23 06:53:56;;;;;;;0.10;0.10;;;;;;;;;;6193478;23;20016;-90
2022/05/23 06:56:22;;;;;;;0.10;0.10;;;;;;;;;;6218687;23;20012;-92
2022/05/23 06:58:51;;;;;;;0.10;0.10;;;;;;;;;;6218303;23;20008;-92
2022/05/23 07:01:17;;;;;;;0.10;0.10;;;;;;;;;;6218817;23;20031;-93
2022/05/23 07:03:46;;;;;;;0.10;0.10;;;;;;;;;;6243856;22;20045;-92
2022/05/23 07:14:26;;;;;;;0.20;0.20;;;;;;;;;;6221867;23;20389;-92
2022/05/23 07:16:53;;;;;;;0.17;0.17;;;;;;;;;;6217536;23;20016;-92
2022/05/23 07:19:19;;;;;;;0.15;0.15;;;;;;;;;;6219331;23;20008;-92
2022/05/23 07:21:45;;;;;;;0.10;0.10;;;;;;;;;;6220282;23;20069;-93
2022/05/23 07:24:11;;;;;;;0.10;0.10;;;;;;;;;;6219846;23;20012;-93
2022/05/23 07:26:38;;;;;;;0.20;0.20;;;;;;;;;;6195516;23;20008;-92
2022/05/23 07:29:05;;;;;;;0.17;0.17;;;;;;;;;;6194851;23;20009;-92
2022/05/23 07:31:31;;;;;;;0.10;0.10;;;;;;;;;;6194992;23;20048;-93
2022/05/23 07:33:57;;;;;;;0.10;0.10;;;;;;;;;;6220075;23;20020;-90
2022/05/23 07:36:23;;;;;;;0.10;0.10;;;;;;;;;;6220231;23;20087;-94
2022/05/23 07:38:49;;;;;;;0.20;0.20;;;;;;;;;;6195874;23;20013;-93
2022/05/23 07:41:15;;;;;;;0.20;0.20;;;;;;;;;;6194927;23;20008;-91
2022/05/23 07:43:41;;;;;;;0.10;0.10;;;;;;;;;;6194851;23;20012;-93
2022/05/23 07:46:12;;;;;;;0.10;0.10;;;;;;;;;;6195020;23;20016;-93
2022/05/23 07:48:48;;;;;;;0.10;0.10;;;;;;;;;;6196069;23;20016;-93
2022/05/23 07:51:15;;;;;;;0.10;0.10;;;;;;;;;;6195370;23;20018;-92
2022/05/23 08:01:54;;;;;;;0.20;0.20;;;;;;;;;;6244650;23;20035;-91
2022/05/23 08:04:20;;;;;;;0.20;0.20;;;;;;;;;;6220153;23;20104;-93
2022/05/23 08:06:47;;;;;;;0.20;0.20;;;;;;;;;;6220255;23;20058;-92
2022/05/23 08:09:13;;;;;;;0.10;0.10;;;;;;;;;;6194927;23;20058;-91
2022/05/23 08:11:39;;;;;;;0.20;0.20;;;;;;;;;;6219867;23;20016;-92
2022/05/23 08:14:05;;;;;;;0.10;0.10;;;;;;;;;;6219299;23;20011;-93
2022/05/23 08:16:31;;;;;;;0.10;0.10;;;;;;;;;;6194426;23;20464;-91
2022/05/23 08:18:58;;;;;;;0.10;0.10;;;;;;;;;;6219427;23;20436;-92
2022/05/23 08:21:24;;;;;;;0.20;0.20;;;;;;;;;;6194723;23;20019;-93
2022/05/23 08:23:50;;;;;;;0.10;0.10;;;;;;;;;;6219221;23;20373;-92
2022/05/23 08:26:16;;;;;;;0.20;0.20;;;;;;;;;;6219875;23;20062;-92
2022/05/23 08:28:42;;;;;;;0.20;0.20;;;;;;;;;;6219528;23;20012;-92
2022/05/23 08:31:09;;;;;;;0.28;0.28;;;;;;;;;;6223714;22;20015;-93
2022/05/23 08:33:37;;;;;;;0.10;0.10;;;;;;;;;;6234454;22;20012;-94
2022/05/23 08:36:03;;;;;;;0.10;0.10;;;;;;;;;;6234691;22;20015;-91
2022/05/23 08:38:29;;;;;;;0.10;0.10;;;;;;;;;;6256625;22;20063;-90
2022/05/23 08:40:55;;;;;;;0.20;0.20;;;;;;;;;;6207835;22;20019;-89
2022/05/23 08:43:26;;;;;;;0.10;0.10;;;;;;;;;;6263981;22;20019;-93
2022/05/23 08:45:52;;;;;;;0.20;0.20;;;;;;;;;;6204545;22;20022;-93
2022/05/23 08:48:24;;;;;;;0.20;0.20;;;;;;;;;;6225032;22;20094;-93
2022/05/23 08:50:53;;;;;;;0.10;0.10;;;;;;;;;;6224657;22;20015;-92
2022/05/23 08:53:27;;;;;;;0.20;0.20;;;;;;;;;;6224224;22;20019;-91
2022/05/23 08:55:53;;;;;;;0.30;0.30;;;;;;;;;;6199465;22;20471;-91
2022/05/23 08:58:25;;;;;;;0.15;0.15;;;;;;;;;;6224189;22;20035;-91
2022/05/23 09:00:55;;;;;;;0.10;0.10;;;;;;;;;;6224441;22;20091;-91
2022/05/23 09:03:43;;;;;;;0.17;0.17;;;;;;;;;;6224327;22;20011;-92
2022/05/23 09:06:18;;;;;;;0.15;0.15;;;;;;;;;;6199662;22;20012;-87
2022/05/23 09:08:48;;;;;;;0.20;0.20;;;;;;;;;;6249455;22;20074;-93
2022/05/23 09:11:24;;;;;;;0.10;0.10;;;;;;;;;;6225174;22;20087;-92
2022/05/23 09:13:51;;;;;;;0.20;0.20;;;;;;;;;;6199004;22;20020;-94
2022/05/23 09:16:17;;;;;;;0.20;0.20;;;;;;;;;;6199276;22;20124;-92
2022/05/23 09:18:44;;;;;;;0.20;0.20;;;;;;;;;;6225146;22;20241;-91
2022/05/23 09:21:10;;;;;;;0.10;0.10;;;;;;;;;;6223819;22;20145;-90
2022/05/23 09:23:47;;;;;;;0.20;0.20;;;;;;;;;;6199170;22;20046;-93
2022/05/23 09:26:16;;;;;;;0.20;0.20;;;;;;;;;;6224761;22;20011;-93
2022/05/23 09:28:42;;;;;;;0.20;0.20;;;;;;;;;;6198965;22;20012;-93
2022/05/23 09:31:11;;;;;;;0.20;0.20;;;;;;;;;;6199215;22;20062;-92
2022/05/23 09:33:45;;;;;;;0.20;0.20;;;;;;;;;;6223232;22;20445;-92
2022/05/23 09:36:31;;;;;;;0.13;0.13;;;;;;;;;;6198815;22;20225;-90
2022/05/23 09:38:59;;;;;;;0.20;0.20;;;;;;;;;;6256421;22;20007;-95
2022/05/23 09:41:29;;;;;;;0.20;0.20;;;;;;;;;;6201284;22;20018;-96
2022/05/23 09:49:45;;;;;;;0.20;0.20;;;;;;;;;;6249165;22;20015;-92
2022/05/23 09:52:19;;;;;;;0.10;0.10;;;;;;;;;;6198154;22;20098;-89
2022/05/23 09:54:46;;;;;;;0.10;0.10;;;;;;;;;;6226139;22;20015;-94
2022/05/23 09:57:32;;;;;;;0.17;0.17;;;;;;;;;;6200540;22;20066;-91
2022/05/23 09:59:59;;;;;;;0.20;0.20;;;;;;;;;;6201371;22;20015;-90
2022/05/23 10:02:32;;;;;;;0.20;0.20;;;;;;;;;;6223632;22;20031;-89
2022/05/23 10:04:58;;;;;;;0.20;0.20;;;;;;;;;;6248669;22;20008;-91
2022/05/23 10:07:32;;;;;;;0.20;0.20;;;;;;;;;;6223666;22;20023;-92
2022/05/23 10:10:02;;;;;;;0.20;0.20;;;;;;;;;;6198617;22;20090;-93
2022/05/23 10:12:28;;;;;;;0.20;0.20;;;;;;;;;;6248648;22;20012;-92
2022/05/23 10:15:03;;;;;;;0.20;0.20;;;;;;;;;;6198644;22;20086;-92
2022/05/23 10:17:33;;;;;;;0.30;0.30;;;;;;;;;;6223321;22;20452;-93
2022/05/23 10:20:18;;;;;;;0.20;0.20;;;;;;;;;;6223507;22;20011;-94
2022/05/23 10:22:57;;;;;;;0.15;0.15;;;;;;;;;;6225822;22;20011;-92
2022/05/23 10:25:23;;;;;;;0.22;0.22;;;;;;;;;;6223874;22;20087;-93
2022/05/23 10:27:54;;;;;;;0.20;0.20;;;;;;;;;;6198886;22;20014;-93
2022/05/23 10:30:20;;;;;;;0.20;0.20;;;;;;;;;;6198877;22;20099;-94
2022/05/23 10:32:48;;;;;;;0.20;0.20;;;;;;;;;;6223614;22;20070;-94
2022/05/23 10:35:23;;;;;;;0.30;0.30;;;;;;;;;;6223930;22;20008;-95
2022/05/23 10:37:51;;;;;;;0.15;0.15;;;;;;;;;;6223852;22;20016;-93
2022/05/23 10:43:04;;;;;;;1.05;0.60;;;;;;;;;;6228033;22;20023;-92
2022/05/23 10:45:36;;;;;;;0.10;0.10;;;;;;;;;;6249018;22;20019;-95
2022/05/23 10:48:21;;;;;;;0.10;0.10;;;;;;;;;;6199589;22;20441;-94
2022/05/23 10:50:47;;;;;;;0.10;0.10;;;;;;;;;;6249253;22;20444;-93
2022/05/23 10:53:15;;;;;;;0.20;0.20;;;;;;;;;;6223170;22;20068;-94
2022/05/23 10:55:48;;;;;;;0.10;0.10;;;;;;;;;;6223736;22;20008;-94
2022/05/23 10:58:34;;;;;;;0.20;0.20;;;;;;;;;;6223301;22;20012;-92
2022/05/23 11:01:06;;;;;;;0.20;0.20;;;;;;;;;;6223834;22;20012;-93
2022/05/23 11:03:48;;;;;;;0.10;0.10;;;;;;;;;;6223423;22;20063;-95
2022/05/23 11:06:14;;;;;;;0.10;0.10;;;;;;;;;;6198505;22;20018;-93
2022/05/23 11:08:51;;;;;;;0.20;0.20;;;;;;;;;;6248460;22;20414;-93
2022/05/23 11:11:17;;;;;;;0.20;0.20;;;;;;;;;;6222733;22;20047;-93
2022/05/23 11:13:46;;;;;;;0.20;0.20;;;;;;;;;;6223164;22;20337;-94
2022/05/23 11:16:15;;;;;;;0.20;0.20;;;;;;;;;;6249229;22;20337;-93
2022/05/23 11:18:45;;;;;;;0.30;0.20;;;;;;;;;;6248510;22;20035;-92
2022/05/23 11:21:12;;;;;;;0.20;0.20;;;;;;;;;;6223488;22;20469;-89
2022/05/23 11:23:48;;;;;;;0.10;0.10;;;;;;;;;;6197975;22;20095;-88
2022/05/23 11:26:14;;;;;;;0.30;0.30;;;;;;;;;;6198219;22;20515;-90
2022/05/23 11:34:35;;;;;;;0.13;0.13;;;;;;;;;;6222075;23;20099;-88
2022/05/23 11:39:51;;;;;;;0.20;0.20;;;;;;;;;;6218004;23;20020;-90
2022/05/23 11:42:17;;;;;;;0.20;0.20;;;;;;;;;;6217774;22;20433;-90
2022/05/23 11:44:44;;;;;;;0.20;0.20;;;;;;;;;;6242838;23;20014;-90
2022/05/23 11:47:21;;;;;;;0.20;0.20;;;;;;;;;;6242784;23;20012;-89
2022/05/23 11:50:00;;;;;;;0.10;0.10;;;;;;;;;;6193026;23;20309;-90
2022/05/23 11:52:43;;;;;;;0.20;0.20;;;;;;;;;;6217817;22;20062;-89
2022/05/23 11:55:09;;;;;;;0.20;0.20;;;;;;;;;;6193158;23;20035;-91
2022/05/23 11:57:39;;;;;;;0.20;0.20;;;;;;;;;;6192497;23;20094;-89
2022/05/23 12:00:09;;;;;;;0.20;0.20;;;;;;;;;;6218211;23;20019;-92
2022/05/23 12:02:38;;;;;;;0.10;0.10;;;;;;;;;;6217384;23;20008;-90
2022/05/23 12:05:07;;;;;;;0.10;0.10;;;;;;;;;;6193461;23;20048;-92
2022/05/23 12:07:37;;;;;;;0.20;0.20;;;;;;;;;;6219449;23;20019;-91
2022/05/23 12:10:25;;;;;;;0.20;0.20;;;;;;;;;;6244708;23;20044;-91
2022/05/23 12:12:51;;;;;;;0.20;0.20;;;;;;;;;;6220121;23;20016;-91
2022/05/23 12:15:35;;;;;;;0.30;0.30;;;;;;;;;;6244541;23;20079;-91
2022/05/23 12:18:01;;;;;;;0.20;0.20;;;;;;;;;;6244989;23;20464;-91
2022/05/23 12:20:27;;;;;;;0.10;0.10;;;;;;;;;;6244562;23;20353;-91
2022/05/23 12:23:10;;;;;;;0.10;0.10;;;;;;;;;;6194487;23;20016;-90
2022/05/23 12:25:36;;;;;;;0.10;0.10;;;;;;;;;;6194549;23;20023;-91
2022/05/23 12:28:05;;;;;;;0.10;0.10;;;;;;;;;;6219908;23;20016;-91
2022/05/23 12:30:35;;;;;;;0.20;0.20;;;;;;;;;;6219833;23;20012;-91
2022/05/23 12:33:01;;;;;;;0.10;0.10;;;;;;;;;;6219394;23;20048;-91
2022/05/23 12:35:30;;;;;;;0.20;0.20;;;;;;;;;;6219001;23;20020;-91
2022/05/23 12:38:05;;;;;;;0.20;0.20;;;;;;;;;;6219031;23;20386;-91
2022/05/23 12:40:32;;;;;;;0.20;0.20;;;;;;;;;;6219638;23;20008;-91
2022/05/23 12:43:10;;;;;;;0.20;0.20;;;;;;;;;;6194179;23;20070;-92
2022/05/23 12:45:53;;;;;;;0.20;0.20;;;;;;;;;;6244463;23;20401;-90
2022/05/23 12:48:35;;;;;;;0.20;0.20;;;;;;;;;;6219320;23;20081;-91
2022/05/23 12:51:05;;;;;;;0.10;0.10;;;;;;;;;;6219846;23;20326;-91
2022/05/23 12:53:43;;;;;;;0.20;0.20;;;;;;;;;;6219285;23;20058;-91
2022/05/23 12:56:16;;;;;;;0.10;0.10;;;;;;;;;;6218935;23;20031;-90
2022/05/23 12:58:48;;;;;;;0.13;0.13;;;;;;;;;;6218984;23;20405;-90
2022/05/23 13:01:14;;;;;;;0.20;0.20;;;;;;;;;;6244250;23;20087;-90
2022/05/23 13:03:44;;;;;;;0.20;0.20;;;;;;;;;;6219218;23;20019;-90
2022/05/23 13:06:10;;;;;;;0.10;0.10;;;;;;;;;;6193979;23;20501;-88
2022/05/23 13:08:47;;;;;;;0.20;0.20;;;;;;;;;;6218714;23;20016;-90
2022/05/23 13:11:17;;;;;;;0.10;0.10;;;;;;;;;;6193832;23;20471;-89
2022/05/23 13:13:45;;;;;;;0.20;0.20;;;;;;;;;;6219020;23;20019;-89
2022/05/23 13:16:14;;;;;;;0.10;0.10;;;;;;;;;;6218608;23;20016;-89
2022/05/23 13:24:14;;;;;;;0.10;0.10;;;;;;;;;;6222739;23;20012;-90
2022/05/23 13:26:40;;;;;;;0.10;0.10;;;;;;;;;;6220197;23;20099;-91
2022/05/23 13:29:09;;;;;;;0.20;0.20;;;;;;;;;;6221189;23;20016;-89
2022/05/23 13:31:35;;;;;;;0.20;0.20;;;;;;;;;;6196057;23;20024;-90
2022/05/23 13:34:01;;;;;;;0.20;0.20;;;;;;;;;;6219892;23;20020;-89
2022/05/23 13:36:28;;;;;;;0.10;0.10;;;;;;;;;;6222903;23;20013;-87
2022/05/23 13:38:58;;;;;;;0.10;0.10;;;;;;;;;;6198948;23;20019;-89
2022/05/23 13:41:28;;;;;;;0.10;0.10;;;;;;;;;;6219690;23;20008;-88
2022/05/23 13:43:53;;;;;;;0.20;0.20;;;;;;;;;;6219089;23;20341;-89
2022/05/23 13:46:32;;;;;;;0.20;0.20;;;;;;;;;;6243856;23;20023;-90
2022/05/23 13:49:05;;;;;;;0.10;0.10;;;;;;;;;;6218624;23;20087;-92
2022/05/23 13:51:51;;;;;;;0.10;0.10;;;;;;;;;;6193894;23;20016;-91
2022/05/23 13:54:26;;;;;;;0.10;0.10;;;;;;;;;;6218425;23;20027;-91
2022/05/23 13:56:54;;;;;;;0.20;0.20;;;;;;;;;;6193559;23;20052;-92
2022/05/23 13:59:21;;;;;;;0.20;0.20;;;;;;;;;;6193468;23;20098;-92
2022/05/23 14:01:48;;;;;;;0.20;0.20;;;;;;;;;;6218434;23;20115;-87
2022/05/23 14:04:15;;;;;;;0.10;0.10;;;;;;;;;;6216956;23;20014;-91
2022/05/23 14:06:43;;;;;;;0.20;0.20;;;;;;;;;;6193129;23;20447;-90
2022/05/23 14:09:09;;;;;;;0.10;0.10;;;;;;;;;;6218911;23;20066;-90
2022/05/23 14:11:36;;;;;;;0.20;0.20;;;;;;;;;;6193271;23;20035;-91
2022/05/23 14:14:13;;;;;;;0.20;0.20;;;;;;;;;;6192975;23;20403;-91
2022/05/23 14:16:39;;;;;;;0.20;0.20;;;;;;;;;;6193376;23;20437;-91
2022/05/23 14:19:21;;;;;;;0.10;0.10;;;;;;;;;;6193091;23;20009;-90
2022/05/23 14:21:47;;;;;;;0.10;0.10;;;;;;;;;;6218463;23;20338;-89
2022/05/23 14:24:29;;;;;;;0.10;0.10;;;;;;;;;;6218211;23;20014;-89
2022/05/23 14:27:13;;;;;;;0.20;0.20;;;;;;;;;;6218445;23;20020;-88
2022/05/23 14:29:39;;;;;;;0.20;0.20;;;;;;;;;;6242961;23;20505;-87
2022/05/23 14:32:11;;;;;;;0.20;0.20;;;;;;;;;;6243033;23;20199;-87
2022/05/23 14:34:37;;;;;;;;;;;;;;;;;;6218793;23;20150;-87
2022/05/23 14:37:04;;;;;;;0.10;0.10;;;;;;;;;;6243119;23;19963;-88
2022/05/23 14:39:31;;;;;;;0.10;0.10;;;;;;;;;;6218085;23;20421;-88
2022/05/23 14:41:58;;;;;;;0.20;0.20;;;;;;;;;;6217841;23;20065;-88
2022/05/23 14:44:31;;;;;;;0.20;0.20;;;;;;;;;;6242806;22;20008;-88
2022/05/23 14:47:05;;;;;;;0.20;0.20;;;;;;;;;;6192976;23;20435;-87
2022/05/23 14:49:36;;;;;;;0.10;0.10;;;;;;;;;;6217221;23;20054;-88
2022/05/23 14:52:20;;;;;;;0.20;0.20;;;;;;;;;;6192435;23;20445;-87
2022/05/23 15:00:38;;;;;;;0.20;0.20;;;;;;;;;;6221652;23;20016;-87
2022/05/23 15:03:11;;;;;;;0.20;0.20;;;;;;;;;;6242945;22;20337;-86
2022/05/23 15:05:36;;;;;;;0.20;0.20;;;;;;;;;;6242826;23;20012;-85
2022/05/23 15:08:03;;;;;;;0.10;0.10;;;;;;;;;;6217532;23;20088;-86
2022/05/23 15:10:29;;;;;;;0.20;0.20;;;;;;;;;;6243004;23;20012;-85
2022/05/23 15:12:55;;;;;;;0.30;0.30;;;;;;;;;;6217736;23;20085;-85
2022/05/23 15:15:21;;;;;;;0.20;0.20;;;;;;;;;;6242910;23;20341;-88
2022/05/23 15:17:47;;;;;;;0.20;0.20;;;;;;;;;;6192538;23;20791;-87
2022/05/23 15:20:13;;;;;;;0.17;0.17;;;;;;;;;;6192726;23;20008;-87
2022/05/23 15:22:41;;;;;;;0.20;0.20;;;;;;;;;;6244524;22;20008;-87
2022/05/23 15:25:09;;;;;;;0.20;0.20;;;;;;;;;;6192960;23;20016;-88
2022/05/23 15:27:35;;;;;;;0.10;0.10;;;;;;;;;;6242678;23;20441;-88
2022/05/23 15:30:05;;;;;;;0.20;0.20;;;;;;;;;;6217588;23;20094;-86
2022/05/23 15:32:31;;;;;;;0.20;0.20;;;;;;;;;;6242377;22;20027;-86
2022/05/23 15:34:58;;;;;;;0.15;0.15;;;;;;;;;;6217738;23;20031;-85
2022/05/23 15:37:23;;;;;;;0.10;0.10;;;;;;;;;;6217407;23;20380;-86
2022/05/23 15:39:50;;;;;;;0.20;0.20;;;;;;;;;;6218368;23;20019;-86
2022/05/23 15:42:26;;;;;;;0.10;0.10;;;;;;;;;;6244756;22;20507;-85
2022/05/23 15:44:52;;;;;;;0.20;0.20;;;;;;;;;;6220182;23;20035;-87
2022/05/23 15:47:19;;;;;;;0.10;0.10;;;;;;;;;;6219618;23;20389;-86
2022/05/23 15:49:45;;;;;;;0.20;0.20;;;;;;;;;;6194632;23;20018;-89
2022/05/23 15:52:11;;;;;;;0.10;0.10;;;;;;;;;;6219260;22;20086;-89
2022/05/23 15:54:37;;;;;;;0.10;0.10;;;;;;;;;;6219228;23;20070;-91
2022/05/23 15:57:03;;;;;;;0.10;0.10;;;;;;;;;;6194212;23;20100;-89
2022/05/23 15:59:29;;;;;;;0.22;0.20;;;;;;;;;;6194395;23;20047;-89
2022/05/23 16:01:55;;;;;;;0.17;0.17;;;;;;;;;;6194393;23;20070;-89